sensor_id;sensor_type;location;lat;lon;timestamp;P1;durP1;ratioP1;P2;durP2;ratioP2
9789;SDS011;4934;50.852;8.098;2024-01-27T00:00:04;17.48;;;3.70;;
9789;SDS011;4934;50.852;8.098;2024-01-27T00:02:30;18.50;;;2.88;;
9789;SDS011;4934;50.852;8.098;2024-01-27T00:04:56;17.98;;;3.03;;
9789;SDS011;4934;50.852;8.098;2024-01-27T00:07:21;14.38;;;3.45;;
9789;SDS011;4934;50.852;8.098;2024-01-27T00:09:48;10.75;;;2.63;;
9789;SDS011;4934;50.852;8.098;2024-01-27T00:12:14;18.40;;;3.28;;
9789;SDS011;4934;50.852;8.098;2024-01-27T00:14:39;18.63;;;3.72;;
9789;SDS011;4934;50.852;8.098;2024-01-27T00:17:05;13.95;;;3.33;;
9789;SDS011;4934;50.852;8.098;2024-01-27T00:19:31;17.85;;;3.58;;
9789;SDS011;4934;50.852;8.098;2024-01-27T00:21:56;23.05;;;3.72;;
9789;SDS011;4934;50.852;8.098;2024-01-27T00:24:23;20.15;;;3.42;;
9789;SDS011;4934;50.852;8.098;2024-01-27T00:26:49;37.25;;;3.92;;
9789;SDS011;4934;50.852;8.098;2024-01-27T00:29:14;16.27;;;3.50;;
9789;SDS011;4934;50.852;8.098;2024-01-27T00:31:40;16.95;;;4.53;;
9789;SDS011;4934;50.852;8.098;2024-01-27T00:34:06;29.45;;;3.75;;
9789;SDS011;4934;50.852;8.098;2024-01-27T00:36:31;13.88;;;2.95;;
9789;SDS011;4934;50.852;8.098;2024-01-27T00:38:57;20.75;;;5.72;;
9789;SDS011;4934;50.852;8.098;2024-01-27T00:41:22;12.48;;;3.28;;
9789;SDS011;4934;50.852;8.098;2024-01-27T00:43:48;19.83;;;3.22;;
9789;SDS011;4934;50.852;8.098;2024-01-27T00:46:13;18.08;;;3.47;;
9789;SDS011;4934;50.852;8.098;2024-01-27T00:48:39;21.20;;;3.53;;
9789;SDS011;4934;50.852;8.098;2024-01-27T00:51:05;25.13;;;3.83;;
9789;SDS011;4934;50.852;8.098;2024-01-27T00:53:30;16.58;;;3.38;;
9789;SDS011;4934;50.852;8.098;2024-01-27T00:55:56;30.73;;;3.97;;
9789;SDS011;4934;50.852;8.098;2024-01-27T00:58:22;18.40;;;3.90;;
9789;SDS011;4934;50.852;8.098;2024-01-27T01:00:47;18.73;;;3.53;;
9789;SDS011;4934;50.852;8.098;2024-01-27T01:03:13;23.48;;;4.75;;
9789;SDS011;4934;50.852;8.098;2024-01-27T01:05:38;19.90;;;4.28;;
9789;SDS011;4934;50.852;8.098;2024-01-27T01:08:04;18.08;;;3.55;;
9789;SDS011;4934;50.852;8.098;2024-01-27T01:10:31;24.45;;;4.43;;
9789;SDS011;4934;50.852;8.098;2024-01-27T01:12:57;23.98;;;3.63;;
9789;SDS011;4934;50.852;8.098;2024-01-27T01:15:22;17.73;;;3.28;;
9789;SDS011;4934;50.852;8.098;2024-01-27T01:17:48;20.95;;;3.45;;
9789;SDS011;4934;50.852;8.098;2024-01-27T01:20:13;20.60;;;3.78;;
9789;SDS011;4934;50.852;8.098;2024-01-27T01:22:40;16.98;;;3.22;;
9789;SDS011;4934;50.852;8.098;2024-01-27T01:25:05;16.40;;;3.40;;
9789;SDS011;4934;50.852;8.098;2024-01-27T01:27:31;12.27;;;2.85;;
9789;SDS011;4934;50.852;8.098;2024-01-27T01:29:57;15.20;;;3.40;;
9789;SDS011;4934;50.852;8.098;2024-01-27T01:32:22;16.25;;;2.90;;
9789;SDS011;4934;50.852;8.098;2024-01-27T01:34:48;16.13;;;3.05;;
9789;SDS011;4934;50.852;8.098;2024-01-27T01:37:14;18.23;;;2.50;;
9789;SDS011;4934;50.852;8.098;2024-01-27T01:39:40;14.55;;;3.45;;
9789;SDS011;4934;50.852;8.098;2024-01-27T01:42:05;25.73;;;3.40;;
9789;SDS011;4934;50.852;8.098;2024-01-27T01:44:31;15.63;;;3.55;;
9789;SDS011;4934;50.852;8.098;2024-01-27T01:46:57;14.93;;;4.57;;
9789;SDS011;4934;50.852;8.098;2024-01-27T01:49:23;11.20;;;3.30;;
9789;SDS011;4934;50.852;8.098;2024-01-27T01:51:48;14.18;;;2.67;;
9789;SDS011;4934;50.852;8.098;2024-01-27T01:54:14;18.38;;;3.13;;
9789;SDS011;4934;50.852;8.098;2024-01-27T01:56:42;20.02;;;3.53;;
9789;SDS011;4934;50.852;8.098;2024-01-27T01:59:07;11.18;;;3.60;;
9789;SDS011;4934;50.852;8.098;2024-01-27T02:01:33;12.57;;;3.25;;
9789;SDS011;4934;50.852;8.098;2024-01-27T02:03:59;25.85;;;4.53;;
9789;SDS011;4934;50.852;8.098;2024-01-27T02:06:24;14.95;;;3.30;;
9789;SDS011;4934;50.852;8.098;2024-01-27T02:08:50;17.90;;;3.80;;
9789;SDS011;4934;50.852;8.098;2024-01-27T02:11:16;14.25;;;3.25;;
9789;SDS011;4934;50.852;8.098;2024-01-27T02:13:42;19.08;;;4.10;;
9789;SDS011;4934;50.852;8.098;2024-01-27T02:16:08;12.00;;;3.08;;
9789;SDS011;4934;50.852;8.098;2024-01-27T02:18:34;22.50;;;3.95;;
9789;SDS011;4934;50.852;8.098;2024-01-27T02:20:59;12.90;;;2.83;;
9789;SDS011;4934;50.852;8.098;2024-01-27T02:23:25;16.38;;;3.53;;
9789;SDS011;4934;50.852;8.098;2024-01-27T02:25:50;11.88;;;3.08;;
9789;SDS011;4934;50.852;8.098;2024-01-27T02:28:16;13.85;;;3.03;;
9789;SDS011;4934;50.852;8.098;2024-01-27T02:30:42;18.70;;;3.67;;
9789;SDS011;4934;50.852;8.098;2024-01-27T02:33:08;10.82;;;2.50;;
9789;SDS011;4934;50.852;8.098;2024-01-27T02:35:34;17.35;;;2.95;;
9789;SDS011;4934;50.852;8.098;2024-01-27T02:37:59;16.60;;;3.75;;
9789;SDS011;4934;50.852;8.098;2024-01-27T02:40:25;22.42;;;3.90;;
9789;SDS011;4934;50.852;8.098;2024-01-27T02:42:51;22.50;;;3.80;;
9789;SDS011;4934;50.852;8.098;2024-01-27T02:45:17;17.67;;;3.45;;
9789;SDS011;4934;50.852;8.098;2024-01-27T02:47:43;12.48;;;3.60;;
9789;SDS011;4934;50.852;8.098;2024-01-27T02:50:08;15.93;;;3.65;;
9789;SDS011;4934;50.852;8.098;2024-01-27T02:52:34;15.07;;;3.67;;
9789;SDS011;4934;50.852;8.098;2024-01-27T02:55:00;14.10;;;4.32;;
9789;SDS011;4934;50.852;8.098;2024-01-27T02:57:26;16.85;;;3.45;;
9789;SDS011;4934;50.852;8.098;2024-01-27T02:59:52;23.35;;;6.28;;
9789;SDS011;4934;50.852;8.098;2024-01-27T03:02:17;14.98;;;4.05;;
9789;SDS011;4934;50.852;8.098;2024-01-27T03:04:43;13.18;;;3.40;;
9789;SDS011;4934;50.852;8.098;2024-01-27T03:07:08;25.98;;;6.55;;
9789;SDS011;4934;50.852;8.098;2024-01-27T03:09:35;8.30;;;3.25;;
9789;SDS011;4934;50.852;8.098;2024-01-27T03:12:00;17.58;;;3.95;;
9789;SDS011;4934;50.852;8.098;2024-01-27T03:14:26;13.95;;;3.78;;
9789;SDS011;4934;50.852;8.098;2024-01-27T03:16:52;15.93;;;3.50;;
9789;SDS011;4934;50.852;8.098;2024-01-27T03:19:17;19.10;;;4.55;;
9789;SDS011;4934;50.852;8.098;2024-01-27T03:21:43;19.70;;;4.22;;
9789;SDS011;4934;50.852;8.098;2024-01-27T03:24:08;15.57;;;3.55;;
9789;SDS011;4934;50.852;8.098;2024-01-27T03:26:34;8.35;;;3.22;;
9789;SDS011;4934;50.852;8.098;2024-01-27T03:28:59;13.23;;;4.47;;
9789;SDS011;4934;50.852;8.098;2024-01-27T03:31:31;16.95;;;5.07;;
9789;SDS011;4934;50.852;8.098;2024-01-27T03:34:00;22.53;;;4.30;;
9789;SDS011;4934;50.852;8.098;2024-01-27T03:36:27;14.90;;;5.05;;
9789;SDS011;4934;50.852;8.098;2024-01-27T03:38:52;16.83;;;3.63;;
9789;SDS011;4934;50.852;8.098;2024-01-27T03:41:19;13.53;;;4.30;;
9789;SDS011;4934;50.852;8.098;2024-01-27T03:43:44;15.45;;;5.75;;
9789;SDS011;4934;50.852;8.098;2024-01-27T03:46:10;20.75;;;4.90;;
9789;SDS011;4934;50.852;8.098;2024-01-27T03:48:36;20.60;;;4.55;;
9789;SDS011;4934;50.852;8.098;2024-01-27T03:51:02;14.50;;;5.00;;
9789;SDS011;4934;50.852;8.098;2024-01-27T03:53:27;15.77;;;4.57;;
9789;SDS011;4934;50.852;8.098;2024-01-27T03:55:53;16.37;;;5.03;;
9789;SDS011;4934;50.852;8.098;2024-01-27T03:58:19;17.03;;;5.20;;
9789;SDS011;4934;50.852;8.098;2024-01-27T04:00:45;20.20;;;4.97;;
9789;SDS011;4934;50.852;8.098;2024-01-27T04:03:11;19.97;;;4.60;;
9789;SDS011;4934;50.852;8.098;2024-01-27T04:05:36;17.63;;;4.63;;
9789;SDS011;4934;50.852;8.098;2024-01-27T04:08:02;20.83;;;5.83;;
9789;SDS011;4934;50.852;8.098;2024-01-27T04:10:29;24.63;;;4.97;;
9789;SDS011;4934;50.852;8.098;2024-01-27T04:12:55;15.70;;;4.60;;
9789;SDS011;4934;50.852;8.098;2024-01-27T04:15:20;13.73;;;3.83;;
9789;SDS011;4934;50.852;8.098;2024-01-27T04:17:46;19.77;;;6.20;;
9789;SDS011;4934;50.852;8.098;2024-01-27T04:20:11;22.03;;;5.60;;
9789;SDS011;4934;50.852;8.098;2024-01-27T04:22:38;19.33;;;5.60;;
9789;SDS011;4934;50.852;8.098;2024-01-27T04:25:04;20.20;;;5.97;;
9789;SDS011;4934;50.852;8.098;2024-01-27T04:27:36;18.67;;;6.00;;
9789;SDS011;4934;50.852;8.098;2024-01-27T04:30:03;15.90;;;6.47;;
9789;SDS011;4934;50.852;8.098;2024-01-27T04:32:31;25.37;;;6.10;;
9789;SDS011;4934;50.852;8.098;2024-01-27T04:34:56;13.37;;;5.10;;
9789;SDS011;4934;50.852;8.098;2024-01-27T04:37:22;22.80;;;5.20;;
9789;SDS011;4934;50.852;8.098;2024-01-27T04:39:48;12.60;;;4.53;;
9789;SDS011;4934;50.852;8.098;2024-01-27T04:42:13;16.40;;;5.10;;
9789;SDS011;4934;50.852;8.098;2024-01-27T04:44:42;15.93;;;4.53;;
9789;SDS011;4934;50.852;8.098;2024-01-27T04:47:08;13.27;;;5.07;;
9789;SDS011;4934;50.852;8.098;2024-01-27T04:49:33;12.13;;;4.67;;
9789;SDS011;4934;50.852;8.098;2024-01-27T04:51:59;11.90;;;5.73;;
9789;SDS011;4934;50.852;8.098;2024-01-27T04:54:24;18.33;;;5.97;;
9789;SDS011;4934;50.852;8.098;2024-01-27T04:56:50;18.67;;;4.57;;
9789;SDS011;4934;50.852;8.098;2024-01-27T04:59:16;23.00;;;5.23;;
9789;SDS011;4934;50.852;8.098;2024-01-27T05:01:45;8.47;;;3.90;;
9789;SDS011;4934;50.852;8.098;2024-01-27T05:04:11;22.33;;;5.60;;
9789;SDS011;4934;50.852;8.098;2024-01-27T05:06:37;19.70;;;5.40;;
9789;SDS011;4934;50.852;8.098;2024-01-27T05:09:04;12.63;;;4.60;;
9789;SDS011;4934;50.852;8.098;2024-01-27T05:11:31;13.90;;;5.37;;
9789;SDS011;4934;50.852;8.098;2024-01-27T05:13:58;13.70;;;4.67;;
9789;SDS011;4934;50.852;8.098;2024-01-27T05:16:24;16.87;;;5.40;;
9789;SDS011;4934;50.852;8.098;2024-01-27T05:18:49;16.70;;;5.60;;
9789;SDS011;4934;50.852;8.098;2024-01-27T05:21:15;21.80;;;6.40;;
9789;SDS011;4934;50.852;8.098;2024-01-27T05:23:41;18.80;;;5.67;;
9789;SDS011;4934;50.852;8.098;2024-01-27T05:26:07;20.53;;;5.80;;
9789;SDS011;4934;50.852;8.098;2024-01-27T05:28:32;18.60;;;5.63;;
9789;SDS011;4934;50.852;8.098;2024-01-27T05:30:58;20.50;;;6.90;;
9789;SDS011;4934;50.852;8.098;2024-01-27T05:33:24;29.33;;;6.57;;
9789;SDS011;4934;50.852;8.098;2024-01-27T05:35:49;14.00;;;5.60;;
9789;SDS011;4934;50.852;8.098;2024-01-27T05:38:15;15.73;;;6.67;;
9789;SDS011;4934;50.852;8.098;2024-01-27T05:40:41;15.90;;;5.77;;
9789;SDS011;4934;50.852;8.098;2024-01-27T05:43:07;17.07;;;5.03;;
9789;SDS011;4934;50.852;8.098;2024-01-27T05:45:33;17.13;;;5.50;;
9789;SDS011;4934;50.852;8.098;2024-01-27T05:47:58;22.90;;;5.33;;
9789;SDS011;4934;50.852;8.098;2024-01-27T05:50:24;21.53;;;5.90;;
9789;SDS011;4934;50.852;8.098;2024-01-27T05:52:51;23.03;;;5.53;;
9789;SDS011;4934;50.852;8.098;2024-01-27T05:55:16;19.07;;;5.70;;
9789;SDS011;4934;50.852;8.098;2024-01-27T05:57:42;19.23;;;5.60;;
9789;SDS011;4934;50.852;8.098;2024-01-27T06:00:08;11.70;;;5.03;;
9789;SDS011;4934;50.852;8.098;2024-01-27T06:02:34;12.00;;;4.80;;
9789;SDS011;4934;50.852;8.098;2024-01-27T06:05:01;19.43;;;4.73;;
9789;SDS011;4934;50.852;8.098;2024-01-27T06:07:27;23.37;;;6.40;;
9789;SDS011;4934;50.852;8.098;2024-01-27T06:09:53;29.43;;;6.00;;
9789;SDS011;4934;50.852;8.098;2024-01-27T06:12:19;12.17;;;4.97;;
9789;SDS011;4934;50.852;8.098;2024-01-27T06:14:45;18.87;;;5.90;;
9789;SDS011;4934;50.852;8.098;2024-01-27T06:17:10;14.67;;;5.40;;
9789;SDS011;4934;50.852;8.098;2024-01-27T06:19:43;23.60;;;6.27;;
9789;SDS011;4934;50.852;8.098;2024-01-27T06:24:42;21.07;;;6.60;;
9789;SDS011;4934;50.852;8.098;2024-01-27T06:27:09;26.37;;;7.30;;
9789;SDS011;4934;50.852;8.098;2024-01-27T06:29:34;26.63;;;7.80;;
9789;SDS011;4934;50.852;8.098;2024-01-27T06:32:00;21.73;;;6.77;;
9789;SDS011;4934;50.852;8.098;2024-01-27T06:34:25;17.37;;;6.93;;
9789;SDS011;4934;50.852;8.098;2024-01-27T06:36:51;16.83;;;7.37;;
9789;SDS011;4934;50.852;8.098;2024-01-27T06:39:16;19.97;;;6.63;;
9789;SDS011;4934;50.852;8.098;2024-01-27T06:41:42;20.53;;;7.23;;
9789;SDS011;4934;50.852;8.098;2024-01-27T06:44:08;17.33;;;6.07;;
9789;SDS011;4934;50.852;8.098;2024-01-27T06:46:33;22.47;;;6.87;;
9789;SDS011;4934;50.852;8.098;2024-01-27T06:48:59;21.47;;;7.90;;
9789;SDS011;4934;50.852;8.098;2024-01-27T06:51:24;23.60;;;8.53;;
9789;SDS011;4934;50.852;8.098;2024-01-27T06:53:50;29.50;;;9.50;;
9789;SDS011;4934;50.852;8.098;2024-01-27T06:56:16;22.07;;;8.17;;
9789;SDS011;4934;50.852;8.098;2024-01-27T06:58:41;28.40;;;8.17;;
9789;SDS011;4934;50.852;8.098;2024-01-27T07:01:07;29.47;;;7.50;;
9789;SDS011;4934;50.852;8.098;2024-01-27T07:06:06;21.33;;;6.23;;
9789;SDS011;4934;50.852;8.098;2024-01-27T07:08:31;19.23;;;6.20;;
9789;SDS011;4934;50.852;8.098;2024-01-27T07:10:57;25.80;;;7.33;;
9789;SDS011;4934;50.852;8.098;2024-01-27T07:13:23;27.07;;;11.67;;
9789;SDS011;4934;50.852;8.098;2024-01-27T07:15:49;20.93;;;7.80;;
9789;SDS011;4934;50.852;8.098;2024-01-27T07:18:14;28.77;;;8.13;;
9789;SDS011;4934;50.852;8.098;2024-01-27T07:20:42;35.93;;;10.77;;
9789;SDS011;4934;50.852;8.098;2024-01-27T07:23:08;27.80;;;10.63;;
9789;SDS011;4934;50.852;8.098;2024-01-27T07:25:33;24.90;;;9.40;;
9789;SDS011;4934;50.852;8.098;2024-01-27T07:27:59;27.37;;;9.80;;
9789;SDS011;4934;50.852;8.098;2024-01-27T07:30:24;33.90;;;10.60;;
9789;SDS011;4934;50.852;8.098;2024-01-27T07:32:50;25.20;;;8.53;;
9789;SDS011;4934;50.852;8.098;2024-01-27T07:35:16;25.83;;;7.23;;
9789;SDS011;4934;50.852;8.098;2024-01-27T07:37:41;19.33;;;6.13;;
9789;SDS011;4934;50.852;8.098;2024-01-27T07:40:08;17.40;;;6.70;;
9789;SDS011;4934;50.852;8.098;2024-01-27T07:42:34;27.53;;;6.83;;
9789;SDS011;4934;50.852;8.098;2024-01-27T07:45:00;28.23;;;8.03;;
9789;SDS011;4934;50.852;8.098;2024-01-27T07:47:25;24.80;;;6.63;;
9789;SDS011;4934;50.852;8.098;2024-01-27T07:49:51;25.30;;;9.00;;
9789;SDS011;4934;50.852;8.098;2024-01-27T07:52:17;24.30;;;8.20;;
9789;SDS011;4934;50.852;8.098;2024-01-27T07:54:43;26.60;;;10.90;;
9789;SDS011;4934;50.852;8.098;2024-01-27T07:57:09;25.00;;;9.57;;
9789;SDS011;4934;50.852;8.098;2024-01-27T07:59:35;22.33;;;9.53;;
9789;SDS011;4934;50.852;8.098;2024-01-27T08:02:01;30.20;;;11.43;;
9789;SDS011;4934;50.852;8.098;2024-01-27T08:06:58;30.63;;;10.70;;
9789;SDS011;4934;50.852;8.098;2024-01-27T08:09:24;35.83;;;11.00;;
9789;SDS011;4934;50.852;8.098;2024-01-27T08:11:50;33.47;;;14.93;;
9789;SDS011;4934;50.852;8.098;2024-01-27T08:14:18;34.60;;;15.05;;
9789;SDS011;4934;50.852;8.098;2024-01-27T08:16:45;34.33;;;14.53;;
9789;SDS011;4934;50.852;8.098;2024-01-27T08:19:18;33.17;;;12.90;;
9789;SDS011;4934;50.852;8.098;2024-01-27T08:21:45;36.00;;;15.07;;
9789;SDS011;4934;50.852;8.098;2024-01-27T08:24:12;40.80;;;17.73;;
9789;SDS011;4934;50.852;8.098;2024-01-27T08:26:38;43.47;;;16.77;;
9789;SDS011;4934;50.852;8.098;2024-01-27T08:29:04;37.43;;;15.20;;
9789;SDS011;4934;50.852;8.098;2024-01-27T08:31:30;37.60;;;14.77;;
9789;SDS011;4934;50.852;8.098;2024-01-27T08:33:55;45.73;;;16.53;;
9789;SDS011;4934;50.852;8.098;2024-01-27T08:36:21;49.03;;;20.27;;
9789;SDS011;4934;50.852;8.098;2024-01-27T08:38:46;60.83;;;21.97;;
9789;SDS011;4934;50.852;8.098;2024-01-27T08:41:12;44.23;;;20.00;;
9789;SDS011;4934;50.852;8.098;2024-01-27T08:43:37;50.33;;;19.87;;
9789;SDS011;4934;50.852;8.098;2024-01-27T08:46:03;47.97;;;19.97;;
9789;SDS011;4934;50.852;8.098;2024-01-27T08:48:28;34.50;;;14.20;;
9789;SDS011;4934;50.852;8.098;2024-01-27T08:50:54;32.93;;;13.20;;
9789;SDS011;4934;50.852;8.098;2024-01-27T08:53:19;31.37;;;11.77;;
9789;SDS011;4934;50.852;8.098;2024-01-27T08:55:45;34.33;;;10.23;;
9789;SDS011;4934;50.852;8.098;2024-01-27T08:58:11;25.30;;;9.00;;
9789;SDS011;4934;50.852;8.098;2024-01-27T09:00:36;28.77;;;9.23;;
9789;SDS011;4934;50.852;8.098;2024-01-27T09:03:02;30.10;;;10.20;;
9789;SDS011;4934;50.852;8.098;2024-01-27T09:05:28;29.90;;;11.23;;
9789;SDS011;4934;50.852;8.098;2024-01-27T09:07:53;26.60;;;10.47;;
9789;SDS011;4934;50.852;8.098;2024-01-27T09:10:19;28.00;;;10.50;;
9789;SDS011;4934;50.852;8.098;2024-01-27T09:12:45;33.57;;;9.87;;
9789;SDS011;4934;50.852;8.098;2024-01-27T09:15:10;25.30;;;9.27;;
9789;SDS011;4934;50.852;8.098;2024-01-27T09:17:36;30.07;;;7.60;;
9789;SDS011;4934;50.852;8.098;2024-01-27T09:20:02;26.90;;;8.67;;
9789;SDS011;4934;50.852;8.098;2024-01-27T09:22:28;24.87;;;8.67;;
9789;SDS011;4934;50.852;8.098;2024-01-27T09:24:53;30.47;;;10.47;;
9789;SDS011;4934;50.852;8.098;2024-01-27T09:27:20;25.87;;;8.93;;
9789;SDS011;4934;50.852;8.098;2024-01-27T09:29:45;21.20;;;8.10;;
9789;SDS011;4934;50.852;8.098;2024-01-27T09:32:11;23.23;;;6.90;;
9789;SDS011;4934;50.852;8.098;2024-01-27T09:34:37;16.90;;;5.87;;
9789;SDS011;4934;50.852;8.098;2024-01-27T09:37:02;13.77;;;4.50;;
9789;SDS011;4934;50.852;8.098;2024-01-27T09:39:28;22.83;;;5.90;;
9789;SDS011;4934;50.852;8.098;2024-01-27T09:41:54;18.73;;;6.90;;
9789;SDS011;4934;50.852;8.098;2024-01-27T09:44:20;19.43;;;6.67;;
9789;SDS011;4934;50.852;8.098;2024-01-27T09:46:46;22.60;;;6.10;;
9789;SDS011;4934;50.852;8.098;2024-01-27T09:49:13;23.93;;;7.40;;
9789;SDS011;4934;50.852;8.098;2024-01-27T09:51:41;30.80;;;9.17;;
9789;SDS011;4934;50.852;8.098;2024-01-27T09:54:07;28.57;;;7.70;;
9789;SDS011;4934;50.852;8.098;2024-01-27T09:56:32;24.30;;;6.43;;
9789;SDS011;4934;50.852;8.098;2024-01-27T09:58:59;18.70;;;6.20;;
9789;SDS011;4934;50.852;8.098;2024-01-27T10:01:25;23.70;;;5.43;;
9789;SDS011;4934;50.852;8.098;2024-01-27T10:03:53;22.85;;;6.65;;
9789;SDS011;4934;50.852;8.098;2024-01-27T10:06:20;29.03;;;7.43;;
9789;SDS011;4934;50.852;8.098;2024-01-27T10:08:51;27.57;;;6.87;;
9789;SDS011;4934;50.852;8.098;2024-01-27T10:11:19;29.83;;;7.13;;
9789;SDS011;4934;50.852;8.098;2024-01-27T10:13:53;22.10;;;7.00;;
9789;SDS011;4934;50.852;8.098;2024-01-27T10:16:21;26.20;;;5.68;;
9789;SDS011;4934;50.852;8.098;2024-01-27T10:18:46;38.00;;;5.80;;
9789;SDS011;4934;50.852;8.098;2024-01-27T10:21:15;26.33;;;5.63;;
9789;SDS011;4934;50.852;8.098;2024-01-27T10:23:43;24.70;;;5.33;;
9789;SDS011;4934;50.852;8.098;2024-01-27T10:26:09;29.30;;;5.15;;
9789;SDS011;4934;50.852;8.098;2024-01-27T10:28:35;23.58;;;5.95;;
9789;SDS011;4934;50.852;8.098;2024-01-27T10:31:10;16.50;;;4.40;;
9789;SDS011;4934;50.852;8.098;2024-01-27T10:33:36;24.33;;;6.55;;
9789;SDS011;4934;50.852;8.098;2024-01-27T10:36:03;19.27;;;4.90;;
9789;SDS011;4934;50.852;8.098;2024-01-27T10:38:36;26.73;;;4.72;;
9789;SDS011;4934;50.852;8.098;2024-01-27T10:41:07;18.67;;;4.20;;
9789;SDS011;4934;50.852;8.098;2024-01-27T10:43:37;18.50;;;4.00;;
9789;SDS011;4934;50.852;8.098;2024-01-27T10:46:05;22.02;;;3.97;;
9789;SDS011;4934;50.852;8.098;2024-01-27T10:48:31;15.73;;;3.60;;
9789;SDS011;4934;50.852;8.098;2024-01-27T10:51:06;16.30;;;4.22;;
9789;SDS011;4934;50.852;8.098;2024-01-27T10:53:33;17.15;;;4.57;;
9789;SDS011;4934;50.852;8.098;2024-01-27T10:56:01;20.65;;;3.67;;
9789;SDS011;4934;50.852;8.098;2024-01-27T10:58:36;26.13;;;4.38;;
9789;SDS011;4934;50.852;8.098;2024-01-27T11:01:06;23.38;;;6.40;;
9789;SDS011;4934;50.852;8.098;2024-01-27T11:03:35;20.00;;;3.85;;
9789;SDS011;4934;50.852;8.098;2024-01-27T11:06:05;19.70;;;4.45;;
9789;SDS011;4934;50.852;8.098;2024-01-27T11:08:40;21.50;;;4.28;;
9789;SDS011;4934;50.852;8.098;2024-01-27T11:11:06;19.05;;;3.42;;
9789;SDS011;4934;50.852;8.098;2024-01-27T11:13:33;22.33;;;3.33;;
9789;SDS011;4934;50.852;8.098;2024-01-27T11:16:00;16.63;;;3.17;;
9789;SDS011;4934;50.852;8.098;2024-01-27T11:18:26;17.00;;;3.15;;
9789;SDS011;4934;50.852;8.098;2024-01-27T11:20:53;16.13;;;4.15;;
9789;SDS011;4934;50.852;8.098;2024-01-27T11:23:19;20.88;;;3.42;;
9789;SDS011;4934;50.852;8.098;2024-01-27T11:25:45;15.55;;;3.95;;
9789;SDS011;4934;50.852;8.098;2024-01-27T11:28:11;9.45;;;3.13;;
9789;SDS011;4934;50.852;8.098;2024-01-27T11:30:47;12.52;;;3.40;;
9789;SDS011;4934;50.852;8.098;2024-01-27T11:33:13;24.02;;;2.53;;
9789;SDS011;4934;50.852;8.098;2024-01-27T11:35:40;14.07;;;2.88;;
9789;SDS011;4934;50.852;8.098;2024-01-27T11:38:06;25.75;;;3.20;;
9789;SDS011;4934;50.852;8.098;2024-01-27T11:40:31;20.10;;;2.67;;
9789;SDS011;4934;50.852;8.098;2024-01-27T11:42:58;18.42;;;3.10;;
9789;SDS011;4934;50.852;8.098;2024-01-27T11:45:26;21.02;;;2.47;;
9789;SDS011;4934;50.852;8.098;2024-01-27T11:47:54;15.23;;;3.00;;
9789;SDS011;4934;50.852;8.098;2024-01-27T11:50:21;23.20;;;3.30;;
9789;SDS011;4934;50.852;8.098;2024-01-27T11:52:47;11.13;;;2.30;;
9789;SDS011;4934;50.852;8.098;2024-01-27T11:55:13;7.70;;;2.38;;
9789;SDS011;4934;50.852;8.098;2024-01-27T11:57:55;9.32;;;2.83;;
9789;SDS011;4934;50.852;8.098;2024-01-27T12:00:21;10.35;;;2.40;;
9789;SDS011;4934;50.852;8.098;2024-01-27T12:02:49;10.13;;;2.58;;
9789;SDS011;4934;50.852;8.098;2024-01-27T12:05:26;19.08;;;2.67;;
9789;SDS011;4934;50.852;8.098;2024-01-27T12:07:52;13.55;;;2.53;;
9789;SDS011;4934;50.852;8.098;2024-01-27T12:10:18;11.20;;;2.15;;
9789;SDS011;4934;50.852;8.098;2024-01-27T12:12:44;14.32;;;2.17;;
9789;SDS011;4934;50.852;8.098;2024-01-27T12:15:10;12.50;;;1.73;;
9789;SDS011;4934;50.852;8.098;2024-01-27T12:17:36;5.10;;;1.52;;
9789;SDS011;4934;50.852;8.098;2024-01-27T12:20:01;8.45;;;1.45;;
9789;SDS011;4934;50.852;8.098;2024-01-27T12:22:37;11.05;;;2.47;;
9789;SDS011;4934;50.852;8.098;2024-01-27T12:25:09;11.23;;;2.17;;
9789;SDS011;4934;50.852;8.098;2024-01-27T12:27:39;16.55;;;1.92;;
9789;SDS011;4934;50.852;8.098;2024-01-27T12:30:05;14.32;;;2.75;;
9789;SDS011;4934;50.852;8.098;2024-01-27T12:32:32;10.52;;;2.15;;
9789;SDS011;4934;50.852;8.098;2024-01-27T12:34:58;13.88;;;2.58;;
9789;SDS011;4934;50.852;8.098;2024-01-27T12:37:25;16.77;;;2.20;;
9789;SDS011;4934;50.852;8.098;2024-01-27T12:39:51;10.73;;;2.33;;
9789;SDS011;4934;50.852;8.098;2024-01-27T12:42:17;11.80;;;2.05;;
9789;SDS011;4934;50.852;8.098;2024-01-27T12:44:42;12.90;;;2.20;;
9789;SDS011;4934;50.852;8.098;2024-01-27T12:47:11;12.98;;;2.03;;
9789;SDS011;4934;50.852;8.098;2024-01-27T12:49:38;14.25;;;2.92;;
9789;SDS011;4934;50.852;8.098;2024-01-27T12:52:05;9.60;;;1.98;;
9789;SDS011;4934;50.852;8.098;2024-01-27T12:54:33;16.15;;;2.53;;
9789;SDS011;4934;50.852;8.098;2024-01-27T12:56:59;12.98;;;1.80;;
9789;SDS011;4934;50.852;8.098;2024-01-27T12:59:32;12.75;;;2.10;;
9789;SDS011;4934;50.852;8.098;2024-01-27T13:02:27;21.77;;;4.05;;
9789;SDS011;4934;50.852;8.098;2024-01-27T13:04:53;19.05;;;3.33;;
9789;SDS011;4934;50.852;8.098;2024-01-27T13:07:18;18.50;;;2.80;;
9789;SDS011;4934;50.852;8.098;2024-01-27T13:09:44;16.45;;;2.28;;
9789;SDS011;4934;50.852;8.098;2024-01-27T13:12:09;11.80;;;2.83;;
9789;SDS011;4934;50.852;8.098;2024-01-27T13:14:35;12.05;;;2.47;;
9789;SDS011;4934;50.852;8.098;2024-01-27T13:17:01;16.02;;;2.45;;
9789;SDS011;4934;50.852;8.098;2024-01-27T13:19:29;5.20;;;1.80;;
9789;SDS011;4934;50.852;8.098;2024-01-27T13:21:55;10.38;;;2.10;;
9789;SDS011;4934;50.852;8.098;2024-01-27T13:24:21;24.30;;;7.43;;
9789;SDS011;4934;50.852;8.098;2024-01-27T13:26:47;9.90;;;2.53;;
9789;SDS011;4934;50.852;8.098;2024-01-27T13:29:14;51.78;;;13.25;;
9789;SDS011;4934;50.852;8.098;2024-01-27T13:31:40;97.50;;;24.20;;
9789;SDS011;4934;50.852;8.098;2024-01-27T13:34:05;11.25;;;2.55;;
9789;SDS011;4934;50.852;8.098;2024-01-27T13:36:31;72.60;;;19.85;;
9789;SDS011;4934;50.852;8.098;2024-01-27T13:38:56;54.05;;;15.85;;
9789;SDS011;4934;50.852;8.098;2024-01-27T13:41:22;37.00;;;11.40;;
9789;SDS011;4934;50.852;8.098;2024-01-27T13:43:48;11.23;;;2.70;;
9789;SDS011;4934;50.852;8.098;2024-01-27T13:46:14;79.32;;;24.92;;
9789;SDS011;4934;50.852;8.098;2024-01-27T13:48:39;39.17;;;8.73;;
9789;SDS011;4934;50.852;8.098;2024-01-27T13:51:05;19.80;;;5.82;;
9789;SDS011;4934;50.852;8.098;2024-01-27T13:53:32;18.02;;;2.70;;
9789;SDS011;4934;50.852;8.098;2024-01-27T13:55:58;22.80;;;5.35;;
9789;SDS011;4934;50.852;8.098;2024-01-27T13:58:25;26.85;;;6.35;;
9789;SDS011;4934;50.852;8.098;2024-01-27T14:00:51;14.07;;;3.03;;
9789;SDS011;4934;50.852;8.098;2024-01-27T14:03:18;21.67;;;6.20;;
9789;SDS011;4934;50.852;8.098;2024-01-27T14:05:43;14.82;;;2.25;;
9789;SDS011;4934;50.852;8.098;2024-01-27T14:08:12;8.25;;;2.25;;
9789;SDS011;4934;50.852;8.098;2024-01-27T14:10:38;17.63;;;3.20;;
9789;SDS011;4934;50.852;8.098;2024-01-27T14:13:04;13.40;;;2.20;;
9789;SDS011;4934;50.852;8.098;2024-01-27T14:15:34;15.30;;;2.67;;
9789;SDS011;4934;50.852;8.098;2024-01-27T14:18:01;13.93;;;3.63;;
9789;SDS011;4934;50.852;8.098;2024-01-27T14:20:27;12.20;;;2.25;;
9789;SDS011;4934;50.852;8.098;2024-01-27T14:22:54;13.50;;;2.60;;
9789;SDS011;4934;50.852;8.098;2024-01-27T14:25:20;13.38;;;2.30;;
9789;SDS011;4934;50.852;8.098;2024-01-27T14:27:47;34.67;;;3.90;;
9789;SDS011;4934;50.852;8.098;2024-01-27T14:30:12;15.65;;;3.38;;
9789;SDS011;4934;50.852;8.098;2024-01-27T14:32:38;10.63;;;3.20;;
9789;SDS011;4934;50.852;8.098;2024-01-27T14:35:04;11.93;;;3.20;;
9789;SDS011;4934;50.852;8.098;2024-01-27T14:37:31;16.40;;;3.10;;
9789;SDS011;4934;50.852;8.098;2024-01-27T14:40:02;12.07;;;1.92;;
9789;SDS011;4934;50.852;8.098;2024-01-27T14:42:30;14.73;;;3.03;;
9789;SDS011;4934;50.852;8.098;2024-01-27T14:44:55;13.13;;;2.13;;
9789;SDS011;4934;50.852;8.098;2024-01-27T14:47:21;8.18;;;1.95;;
9789;SDS011;4934;50.852;8.098;2024-01-27T14:49:47;10.77;;;2.20;;
9789;SDS011;4934;50.852;8.098;2024-01-27T14:52:12;9.57;;;2.38;;
9789;SDS011;4934;50.852;8.098;2024-01-27T14:54:38;7.43;;;2.10;;
9789;SDS011;4934;50.852;8.098;2024-01-27T14:57:05;13.93;;;2.47;;
9789;SDS011;4934;50.852;8.098;2024-01-27T14:59:34;13.18;;;2.10;;
9789;SDS011;4934;50.852;8.098;2024-01-27T15:02:00;18.83;;;2.50;;